Time;durP1;ratioP1;P1;durP2;ratioP2;P2;SDS_P1;SDS_P2;PMS_P1;PMS_P2;Temp;Humidity;BMP_temperature;BMP_pressure;BME280_temperature;BME280_humidity;BME280_pressure;Samples;Min_cycle;Max_cycle;Signal;HPM_P1;HPM_P2
2023/02/08 00:00:43;;;;;;;19.03;9.93;;;;;;;-5.66;100.00;98138.13;6216281;23;20443;-88
2023/02/08 00:03:09;;;;;;;20.13;10.70;;;;;;;-5.69;100.00;98131.31;6242378;23;20468;-86
2023/02/08 00:05:34;;;;;;;21.83;11.27;;;;;;;-5.71;100.00;98127.88;6268068;22;20324;-87
2023/02/08 00:08:01;;;;;;;18.17;10.33;;;;;;;-5.68;100.00;98122.75;6242638;23;20023;-88
2023/02/08 00:10:27;;;;;;;20.03;11.00;;;;;;;-5.75;100.00;98126.22;6268114;22;20000;-88
2023/02/08 00:13:03;;;;;;;22.93;11.93;;;;;;;-5.80;100.00;98123.72;6217494;23;20426;-87
2023/02/08 00:15:28;;;;;;;20.90;10.47;;;;;;;-5.81;100.00;98131.41;6242361;23;20016;-88
2023/02/08 00:17:56;;;;;;;18.00;10.43;;;;;;;-5.81;100.00;98118.59;6242640;23;20447;-88
2023/02/08 00:20:24;;;;;;;20.03;10.93;;;;;;;-5.86;100.00;98118.63;6241561;22;20101;-88
2023/02/08 00:22:50;;;;;;;20.00;10.53;;;;;;;-5.88;100.00;98115.22;6242104;23;20825;-87
2023/02/08 00:25:16;;;;;;;18.10;9.97;;;;;;;-5.87;100.00;98110.94;6217316;23;20423;-88
2023/02/08 00:27:42;;;;;;;18.77;9.63;;;;;;;-5.95;100.00;98124.69;6241806;23;20008;-87
2023/02/08 00:30:08;;;;;;;18.77;10.83;;;;;;;-5.95;100.00;98118.72;6241352;23;20004;-88
2023/02/08 00:32:34;;;;;;;20.17;10.10;;;;;;;-6.02;100.00;98117.09;6216411;23;20016;-88
2023/02/08 00:34:59;;;;;;;21.13;9.83;;;;;;;-5.99;100.00;98123.03;6267988;22;20465;-87
2023/02/08 00:37:25;;;;;;;20.00;10.13;;;;;;;-6.03;100.00;98115.41;6242144;22;20004;-87
2023/02/08 00:39:50;;;;;;;19.33;10.30;;;;;;;-6.05;100.00;98115.38;6217425;23;20012;-87
2023/02/08 00:42:16;;;;;;;21.33;9.77;;;;;;;-6.06;100.00;98120.53;6238353;23;20047;-87
2023/02/08 00:44:42;;;;;;;18.73;11.10;;;;;;;-6.09;100.00;98118.00;6235257;23;20016;-87
2023/02/08 00:47:07;;;;;;;19.47;10.30;;;;;;;-6.10;100.00;98113.72;6208083;23;20014;-87
2023/02/08 00:49:33;;;;;;;20.77;10.87;;;;;;;-6.06;100.00;98117.97;6235411;22;20012;-87
2023/02/08 00:51:59;;;;;;;17.50;10.43;;;;;;;-6.12;100.00;98110.34;6259319;22;20018;-86
2023/02/08 00:54:25;;;;;;;20.23;10.90;;;;;;;-6.22;100.00;98128.31;6208870;23;20547;-87
2023/02/08 00:56:51;;;;;;;18.53;10.73;;;;;;;-6.15;100.00;98115.47;6235156;23;20099;-88
2023/02/08 00:59:17;;;;;;;23.77;11.77;;;;;;;-6.24;100.00;98131.75;6233894;23;20440;-87
2023/02/08 01:01:44;;;;;;;20.07;10.07;;;;;;;-6.21;100.00;98122.31;6259598;22;20551;-87
2023/02/08 01:04:10;;;;;;;22.47;11.43;;;;;;;-6.30;100.00;98116.44;6245525;23;20433;-87
2023/02/08 01:06:39;;;;;;;24.43;12.17;;;;;;;-6.25;100.00;98115.53;6235168;23;20448;-88
2023/02/08 01:09:05;;;;;;;18.52;10.75;;;;;;;-6.20;100.00;98120.66;6209197;23;20020;-88
2023/02/08 01:11:31;;;;;;;18.67;10.07;;;;;;;-6.28;100.00;98120.66;6235552;22;20078;-87
2023/02/08 01:13:57;;;;;;;21.27;10.67;;;;;;;-6.35;100.00;98120.72;6216845;23;20020;-88
2023/02/08 01:16:29;;;;;;;22.70;11.20;;;;;;;-6.37;100.00;98125.00;6242623;23;20047;-85
2023/02/08 01:18:57;;;;;;;19.20;10.50;;;;;;;-6.43;100.00;98116.50;6267360;22;20453;-88
2023/02/08 01:21:25;;;;;;;21.17;11.90;;;;;;;-6.39;100.00;98122.47;6241440;22;20418;-88
2023/02/08 01:23:52;;;;;;;19.00;10.23;;;;;;;-6.43;100.00;98124.19;6242325;23;20043;-88
2023/02/08 01:26:19;;;;;;;20.57;10.07;;;;;;;-6.37;100.00;98125.00;6242963;23;20912;-87
2023/02/08 01:28:46;;;;;;;20.60;10.87;;;;;;;-6.31;100.00;98119.84;6241425;23;20399;-87
2023/02/08 01:31:22;;;;;;;21.75;11.77;;;;;;;-6.45;100.00;98118.22;6242300;22;20415;-87
2023/02/08 01:33:48;;;;;;;21.02;10.98;;;;;;;-6.46;100.00;98115.69;6242485;23;20039;-88
2023/02/08 01:36:17;;;;;;;20.33;11.10;;;;;;;-6.58;100.00;98108.06;6243007;23;20020;-87
2023/02/08 01:38:44;;;;;;;22.92;12.40;;;;;;;-6.64;100.00;98108.94;6242594;23;20339;-87
2023/02/08 01:41:18;;;;;;;18.85;9.73;;;;;;;-6.63;100.00;98102.13;6258067;22;20015;-88
2023/02/08 01:44:02;;;;;;;20.70;10.02;;;;;;;-6.70;100.00;98107.28;6264935;22;20000;-88
2023/02/08 01:46:31;;;;;;;20.42;11.48;;;;;;;-6.72;100.00;98105.59;6241692;23;20016;-88
2023/02/08 01:49:27;;;;;;;21.88;11.50;;;;;;;-6.68;100.00;98105.56;6241599;22;20012;-88
2023/02/08 01:52:10;;;;;;;21.10;11.02;;;;;;;-6.70;100.00;98103.88;6240547;23;20062;-87
2023/02/08 01:54:41;;;;;;;21.73;11.10;;;;;;;-6.63;100.00;98097.88;6241750;23;20008;-87
2023/02/08 01:57:07;;;;;;;20.20;10.57;;;;;;;-6.62;100.00;98101.28;6242249;23;20099;-87
2023/02/08 01:59:52;;;;;;;19.40;11.00;;;;;;;-6.67;100.00;98098.75;6214679;23;20019;-88
2023/02/08 02:02:21;;;;;;;22.05;11.48;;;;;;;-6.62;100.00;98099.56;6239908;23;20024;-87
2023/02/08 02:04:49;;;;;;;24.45;11.25;;;;;;;-6.63;100.00;98094.47;6216806;23;20016;-87
2023/02/08 02:07:17;;;;;;;22.55;10.90;;;;;;;-6.59;100.00;98094.44;6242261;23;20012;-87
2023/02/08 02:10:19;;;;;;;20.52;10.90;;;;;;;-6.64;100.00;98091.03;6266939;22;20043;-87
2023/02/08 02:12:46;;;;;;;25.85;10.90;;;;;;;-6.66;100.00;98092.75;6246990;22;20355;-87
2023/02/08 02:15:11;;;;;;;20.92;11.20;;;;;;;-6.61;100.00;98080.78;6241503;23;20444;-87
2023/02/08 02:17:38;;;;;;;22.40;10.27;;;;;;;-6.65;100.00;98089.34;6240897;23;20020;-88
2023/02/08 02:20:25;;;;;;;22.05;11.40;;;;;;;-6.69;100.00;98085.09;6217809;23;20022;-87
2023/02/08 02:23:22;;;;;;;23.20;11.60;;;;;;;-6.61;100.00;98085.91;6241554;23;20557;-87
2023/02/08 02:26:19;;;;;;;20.83;9.90;;;;;;;-6.66;100.00;98077.41;6242004;23;20015;-87
2023/02/08 02:29:23;;;;;;;23.05;11.10;;;;;;;-6.57;100.00;98072.25;6242142;23;20031;-86
2023/02/08 02:32:32;;;;;;;15.18;8.45;;;;;;;-6.57;100.00;98071.38;6240566;23;20012;-87
2023/02/08 02:35:10;;;;;;;20.73;10.50;;;;;;;-6.54;100.00;98077.34;6240425;23;20444;-87
2023/02/08 02:37:52;;;;;;;23.73;11.75;;;;;;;-6.65;100.00;98074.00;6240055;22;20067;-87
2023/02/08 02:40:24;;;;;;;25.92;11.55;;;;;;;-6.64;100.00;98070.56;6240313;22;20012;-87
2023/02/08 02:43:53;;;;;;;20.70;11.65;;;;;;;-6.65;100.00;98074.00;6241263;23;20050;-87
2023/02/08 02:46:27;;;;;;;24.13;11.57;;;;;;;-6.55;100.00;98072.22;6120237;23;20075;-87
2023/02/08 02:48:59;;;;;;;23.08;11.50;;;;;;;-6.64;100.00;98080.78;6095860;23;20100;-86
2023/02/08 02:51:35;;;;;;;21.63;12.63;;;;;;;-6.66;100.00;98078.25;6199729;22;20048;-87
2023/02/08 02:54:15;;;;;;;25.63;13.32;;;;;;;-6.61;100.00;98085.91;6240837;23;20518;-87
2023/02/08 02:56:55;;;;;;;22.80;12.43;;;;;;;-6.66;100.00;98079.97;6240595;23;20036;-87
2023/02/08 02:59:22;;;;;;;23.90;12.38;;;;;;;-6.67;100.00;98070.59;6239422;23;20012;-87
2023/02/08 03:01:47;;;;;;;22.33;11.45;;;;;;;-6.67;100.00;98080.84;6242509;22;20019;-87
2023/02/08 03:04:35;;;;;;;21.80;11.73;;;;;;;-6.69;100.00;98074.88;6218769;23;20012;-87
2023/02/08 03:07:19;;;;;;;21.40;12.13;;;;;;;-6.72;100.00;98069.78;6243625;23;20016;-87
2023/02/08 03:10:09;;;;;;;;;;;;;;;-6.66;100.00;98073.13;6244549;22;20016;-87
2023/02/08 03:12:59;;;;;;;24.17;11.10;;;;;;;-6.72;100.00;98069.78;6264514;22;19918;-89
2023/02/08 03:16:04;;;;;;;23.52;13.35;;;;;;;-6.72;100.00;98069.78;6237105;22;20023;-88
2023/02/08 03:18:42;;;;;;;21.65;11.07;;;;;;;-6.74;100.00;98071.47;6144865;23;20686;-88
2023/02/08 03:21:29;;;;;;;20.08;11.40;;;;;;;-6.77;100.00;98076.59;6119870;23;20024;-87
2023/02/08 03:24:24;;;;;;;23.13;11.65;;;;;;;-6.78;100.00;98073.19;6224994;22;20429;-88
2023/02/08 03:26:56;;;;;;;21.67;11.20;;;;;;;-6.77;100.00;98074.91;6262145;22;20063;-88
2023/02/08 03:32:39;;;;;;;23.52;11.32;;;;;;;-6.71;100.00;98074.00;6261402;22;20066;-88
2023/02/08 03:35:21;;;;;;;20.00;10.70;;;;;;;-6.74;100.00;98069.78;6236013;23;20054;-88
2023/02/08 03:37:59;;;;;;;25.83;12.77;;;;;;;-6.69;100.00;98062.94;6235088;23;20526;-88
2023/02/08 03:40:47;;;;;;;24.70;11.32;;;;;;;-6.70;100.00;98066.34;6234115;23;20016;-87
2023/02/08 03:43:37;;;;;;;22.63;12.18;;;;;;;-6.70;100.00;98063.78;6212390;23;20347;-88
2023/02/08 03:46:09;;;;;;;30.15;13.45;;;;;;;-6.69;100.00;98054.41;6241795;23;20023;-87
2023/02/08 03:48:37;;;;;;;25.27;12.48;;;;;;;-6.66;100.00;98054.38;6243227;22;20008;-87
2023/02/08 03:51:04;;;;;;;25.35;12.60;;;;;;;-6.58;100.00;98057.72;6242676;22;20103;-88
2023/02/08 03:53:37;;;;;;;25.75;13.15;;;;;;;-6.66;100.00;98056.94;6242701;23;20023;-87
2023/02/08 03:56:09;;;;;;;21.02;11.73;;;;;;;-6.72;100.00;98062.94;6217823;23;20031;-87
2023/02/08 03:58:45;;;;;;;16.83;8.85;;;;;;;-6.69;100.00;98062.06;6243649;23;20020;-87
2023/02/08 04:01:35;;;;;;;26.85;13.88;;;;;;;-6.68;100.00;98063.75;6244775;23;20399;-87
2023/02/08 04:04:16;;;;;;;26.38;12.60;;;;;;;-6.72;100.00;98064.66;6245301;23;20047;-87
2023/02/08 04:06:42;;;;;;;23.73;11.95;;;;;;;-6.75;100.00;98054.44;6266585;23;20019;-89
2023/02/08 04:09:08;;;;;;;26.33;12.80;;;;;;;-6.72;100.00;98054.41;6250093;22;20027;-88
2023/02/08 04:11:34;;;;;;;22.90;12.07;;;;;;;-6.66;100.00;98062.06;6233722;22;20047;-88
2023/02/08 04:14:01;;;;;;;23.03;11.70;;;;;;;-6.68;100.00;98064.63;6259397;22;20053;-87
2023/02/08 04:16:26;;;;;;;22.35;11.98;;;;;;;-6.73;100.00;98056.13;6232673;23;20078;-88
2023/02/08 04:18:57;;;;;;;23.93;12.43;;;;;;;-6.78;100.00;98054.44;6208344;23;20447;-88
2023/02/08 04:21:23;;;;;;;26.52;12.40;;;;;;;-6.74;100.00;98059.56;6208338;23;20024;-87
2023/02/08 04:23:55;;;;;;;25.30;12.40;;;;;;;-6.76;100.00;98051.03;6207569;23;20011;-88
2023/02/08 04:26:20;;;;;;;27.60;12.38;;;;;;;-6.76;100.00;98051.03;6233045;23;20108;-88
2023/02/08 04:28:53;;;;;;;21.20;11.83;;;;;;;-6.75;100.00;98046.75;6257390;22;20047;-87
2023/02/08 04:31:19;;;;;;;22.38;11.10;;;;;;;-6.78;100.00;98039.94;6257527;22;20016;-88
2023/02/08 04:33:48;;;;;;;22.73;11.70;;;;;;;-6.81;100.00;98045.06;6208079;23;20871;-88
2023/02/08 04:36:23;;;;;;;25.45;12.70;;;;;;;-6.80;100.00;98043.41;6234714;23;20020;-88
2023/02/08 04:38:48;;;;;;;24.27;12.40;;;;;;;-6.83;100.00;98044.25;6239873;23;20008;-88
2023/02/08 04:41:14;;;;;;;23.63;12.90;;;;;;;-6.85;100.00;98045.13;6241315;22;20468;-88
2023/02/08 04:43:40;;;;;;;24.80;13.70;;;;;;;-6.83;100.00;98043.41;6217852;23;20836;-87
2023/02/08 04:46:06;;;;;;;23.67;11.67;;;;;;;-6.83;100.00;98045.97;6216414;23;20485;-88
2023/02/08 04:48:32;;;;;;;24.33;12.50;;;;;;;-6.70;100.00;98048.44;6242590;22;20042;-88
2023/02/08 04:51:08;;;;;;;25.27;12.37;;;;;;;-6.77;100.00;98036.56;6266830;22;20008;-88
2023/02/08 04:53:33;;;;;;;23.02;11.18;;;;;;;-6.77;100.00;98043.34;6215186;23;20038;-88
2023/02/08 04:56:01;;;;;;;24.70;11.43;;;;;;;-6.86;100.00;98034.03;6242716;23;20647;-88
2023/02/08 04:58:30;;;;;;;23.38;11.32;;;;;;;-6.83;100.00;98028.06;6214791;23;20098;-87
2023/02/08 05:00:55;;;;;;;26.98;12.55;;;;;;;-6.84;100.00;98031.47;6239080;23;20012;-88
2023/02/08 05:03:29;;;;;;;20.60;11.53;;;;;;;-6.76;100.00;98039.94;6216195;23;20023;-88
2023/02/08 05:06:06;;;;;;;26.58;11.95;;;;;;;-6.76;100.00;98028.00;6244129;23;20494;-86
2023/02/08 05:08:35;;;;;;;23.52;11.75;;;;;;;-6.75;100.00;98033.97;6238160;23;20012;-88
2023/02/08 05:11:01;;;;;;;26.10;12.70;;;;;;;-6.75;100.00;98027.13;6233844;23;20593;-88
2023/02/08 05:13:26;;;;;;;27.93;12.57;;;;;;;-6.70;100.00;98025.41;6234818;23;20012;-88
2023/02/08 05:15:54;;;;;;;23.00;11.73;;;;;;;-6.76;100.00;98027.16;6244187;23;20024;-88
2023/02/08 05:18:23;;;;;;;25.08;13.40;;;;;;;-6.47;100.00;98035.50;6278769;22;20012;-88
2023/02/08 05:21:03;;;;;;;25.13;12.82;;;;;;;-6.62;100.00;98016.84;6255145;23;20008;-88
2023/02/08 05:23:36;;;;;;;22.65;11.40;;;;;;;-6.67;100.00;98014.31;6214896;23;20075;-88
2023/02/08 05:26:07;;;;;;;27.15;12.63;;;;;;;-6.74;100.00;98018.63;6239259;23;20012;-88
2023/02/08 05:28:33;;;;;;;26.33;13.10;;;;;;;-6.69;100.00;98021.13;6264413;22;20012;-88
2023/02/08 05:30:59;;;;;;;25.63;11.93;;;;;;;-6.80;100.00;98021.22;6238651;23;20095;-88
2023/02/08 05:33:27;;;;;;;24.30;12.80;;;;;;;-6.69;100.00;98031.38;6264271;22;20777;-88
2023/02/08 05:35:53;;;;;;;22.77;12.02;;;;;;;-6.77;100.00;98035.69;6263947;22;20415;-88
2023/02/08 05:38:19;;;;;;;25.93;12.37;;;;;;;-6.71;100.00;98028.81;6240232;22;20095;-88
2023/02/08 05:40:47;;;;;;;28.52;13.73;;;;;;;-6.85;100.00;98029.78;6243111;23;20012;-87
2023/02/08 05:43:13;;;;;;;31.93;13.50;;;;;;;-6.82;100.00;98032.31;6213757;23;20043;-88
2023/02/08 05:45:39;;;;;;;27.20;13.97;;;;;;;-6.74;100.00;98039.09;6218420;23;20077;-87
2023/02/08 05:48:05;;;;;;;24.57;12.77;;;;;;;-6.74;100.00;98035.66;6256917;22;20012;-88
2023/02/08 05:50:39;;;;;;;26.70;13.43;;;;;;;-6.76;100.00;98034.84;6229016;23;20503;-88
2023/02/08 05:53:08;;;;;;;24.08;13.63;;;;;;;-6.73;100.00;98034.81;6252234;22;20012;-88
2023/02/08 05:55:47;;;;;;;25.45;12.70;;;;;;;-6.72;100.00;98036.50;6230318;23;20350;-86
2023/02/08 05:58:13;;;;;;;27.15;12.82;;;;;;;-6.75;100.00;98032.25;6228891;23;20073;-88
2023/02/08 06:00:39;;;;;;;25.35;13.57;;;;;;;-6.75;100.00;98036.53;6226580;23;20015;-88
2023/02/08 06:03:14;;;;;;;27.03;13.63;;;;;;;-6.73;100.00;98039.94;6228501;23;20095;-87
2023/02/08 06:05:40;;;;;;;23.98;12.88;;;;;;;-6.67;100.00;98043.31;6233103;23;20074;-87
2023/02/08 06:08:06;;;;;;;24.27;12.52;;;;;;;-6.77;100.00;98034.00;6242100;23;20008;-87
2023/02/08 06:10:35;;;;;;;28.23;14.93;;;;;;;-6.74;100.00;98033.97;6242819;23;19996;-87
2023/02/08 06:13:02;;;;;;;28.45;15.25;;;;;;;-6.76;100.00;98034.84;6242656;23;20020;-87
2023/02/08 06:15:52;;;;;;;27.65;14.68;;;;;;;-6.81;100.00;98044.22;6242927;22;20400;-87
2023/02/08 06:18:18;;;;;;;28.40;12.52;;;;;;;-6.83;100.00;98048.53;6243098;23;20352;-87
2023/02/08 06:20:46;;;;;;;23.70;13.13;;;;;;;-6.84;100.00;98047.69;6219120;23;20022;-85
2023/02/08 06:23:12;;;;;;;24.75;14.57;;;;;;;-6.80;100.00;98048.50;6270385;22;20012;-87
2023/02/08 06:25:40;;;;;;;24.55;13.70;;;;;;;-6.81;100.00;98046.78;6245914;23;20004;-87
2023/02/08 06:28:09;;;;;;;25.40;13.43;;;;;;;-6.85;100.00;98055.34;6227805;23;20004;-86
2023/02/08 06:30:36;;;;;;;29.08;14.82;;;;;;;-6.85;100.00;98051.06;6267146;22;20043;-86
2023/02/08 06:33:02;;;;;;;27.20;14.27;;;;;;;-6.83;100.00;98051.94;6267714;22;20011;-87
2023/02/08 06:35:28;;;;;;;32.03;14.88;;;;;;;-6.80;100.00;98056.19;6241277;23;20069;-87
2023/02/08 06:37:54;;;;;;;27.07;14.57;;;;;;;-6.76;100.00;98055.31;6240716;22;20016;-87
2023/02/08 06:40:19;;;;;;;27.40;14.80;;;;;;;-6.73;100.00;98056.13;6267734;22;20019;-89
2023/02/08 06:42:48;;;;;;;27.50;14.77;;;;;;;-6.74;100.00;98053.56;6244227;23;20012;-90
2023/02/08 06:45:14;;;;;;;30.35;16.17;;;;;;;-6.73;100.00;98050.16;6243180;23;20039;-89
2023/02/08 06:47:40;;;;;;;28.83;15.03;;;;;;;-6.71;100.00;98059.50;6242982;23;20015;-89
2023/02/08 06:50:07;;;;;;;28.73;14.40;;;;;;;-6.71;100.00;98058.66;6243604;22;20007;-90
2023/02/08 06:52:32;;;;;;;31.92;15.52;;;;;;;-6.72;100.00;98046.75;6242476;23;20363;-90
2023/02/08 06:55:01;;;;;;;30.27;14.73;;;;;;;-6.71;100.00;98048.44;6267781;22;20012;-89
2023/02/08 06:57:30;;;;;;;25.70;14.20;;;;;;;-6.69;100.00;98049.28;6242309;23;20008;-90
2023/02/08 06:59:55;;;;;;;27.17;14.32;;;;;;;-6.68;100.00;98048.41;6218571;23;20077;-89
2023/02/08 07:02:21;;;;;;;30.70;16.27;;;;;;;-6.68;100.00;98048.41;6218245;23;20031;-89
2023/02/08 07:04:47;;;;;;;31.87;16.43;;;;;;;-6.61;100.00;98044.97;6218772;23;20029;-89
2023/02/08 07:07:14;;;;;;;28.57;14.77;;;;;;;-6.43;100.00;98044.00;6244585;23;20027;-87
2023/02/08 07:09:40;;;;;;;29.15;15.63;;;;;;;-6.47;100.00;98032.94;6219689;23;20008;-89
2023/02/08 07:12:15;;;;;;;29.73;14.47;;;;;;;-6.44;100.00;98042.28;6244417;23;20000;-88
2023/02/08 07:14:42;;;;;;;30.70;16.40;;;;;;;-6.30;100.00;98026.84;6244602;23;20096;-88
2023/02/08 07:17:09;;;;;;;34.17;17.80;;;;;;;-6.24;100.00;98034.44;6218923;23;20016;-88
2023/02/08 07:19:34;;;;;;;30.60;14.43;;;;;;;-6.18;100.00;98031.84;6269569;22;20019;-88
2023/02/08 07:22:07;;;;;;;32.10;15.77;;;;;;;-6.17;100.00;98036.97;6243155;23;20008;-89
2023/02/08 07:24:34;;;;;;;33.83;16.80;;;;;;;-5.94;100.00;98049.53;6243556;23;20016;-88
2023/02/08 07:27:01;;;;;;;35.75;17.70;;;;;;;-5.72;100.00;98039.91;6269201;22;20013;-89
2023/02/08 07:29:29;;;;;;;30.65;14.55;;;;;;;-5.59;100.00;98050.06;6268938;22;19996;-89
2023/02/08 07:32:00;;;;;;;28.83;14.75;;;;;;;-5.47;100.00;98043.06;6243836;23;20503;-88
2023/02/08 07:34:36;;;;;;;22.38;11.10;;;;;;;-5.19;100.00;98055.59;6244930;22;20019;-88
2023/02/08 07:37:02;;;;;;;33.85;15.55;;;;;;;-5.01;100.00;98041.66;6246091;23;20074;-89
2023/02/08 07:39:30;;;;;;;26.97;14.73;;;;;;;-4.97;100.00;98057.00;6220519;23;20012;-89
2023/02/08 07:41:56;;;;;;;31.10;14.88;;;;;;;-4.42;100.00;98049.44;6243883;22;20012;-89
2023/02/08 07:44:22;;;;;;;26.65;13.85;;;;;;;-4.24;100.00;98053.41;6243731;23;20024;-89
2023/02/08 07:46:48;;;;;;;25.23;13.77;;;;;;;-4.18;100.00;98051.59;6244082;23;20023;-89
2023/02/08 07:49:14;;;;;;;26.60;13.87;;;;;;;-3.74;100.00;98050.00;6219142;23;20946;-89
2023/02/08 07:51:40;;;;;;;29.57;15.77;;;;;;;-3.70;100.00;98037.94;6244714;22;20004;-89
2023/02/08 07:54:06;;;;;;;25.47;13.27;;;;;;;-3.46;100.00;98036.63;6243742;22;20012;-89
2023/02/08 07:56:32;;;;;;;23.43;12.90;;;;;;;-2.98;100.00;98036.56;6243861;23;20016;-88
2023/02/08 07:59:01;;;;;;;27.70;14.03;;;;;;;-3.13;100.00;98041.13;6243130;23;20431;-87
2023/02/08 08:01:30;;;;;;;30.43;14.80;;;;;;;-2.84;100.00;98034.53;6219171;23;20010;-88
2023/02/08 08:04:00;;;;;;;29.90;14.93;;;;;;;-2.56;100.00;98028.78;6218733;23;20434;-87
2023/02/08 08:06:26;;;;;;;32.27;15.33;;;;;;;-3.01;100.00;98027.19;6244676;22;20422;-88
2023/02/08 08:08:54;;;;;;;26.83;14.10;;;;;;;-1.82;100.00;98028.69;6244656;23;20411;-86
2023/02/08 08:11:20;;;;;;;26.80;15.07;;;;;;;-1.95;100.00;98030.72;6219095;23;20026;-88
2023/02/08 08:13:46;;;;;;;25.00;14.43;;;;;;;-1.87;100.00;98021.97;6244361;22;21115;-87
2023/02/08 08:16:16;;;;;;;26.97;13.57;;;;;;;-1.68;100.00;98013.72;6243846;22;20821;-87
2023/02/08 08:18:42;;;;;;;24.67;13.70;;;;;;;-1.45;100.00;98020.00;6244439;22;20431;-88
2023/02/08 08:21:08;;;;;;;23.13;12.73;;;;;;;-1.36;100.00;98016.31;6269373;22;21183;-86
2023/02/08 08:23:35;;;;;;;23.30;13.53;;;;;;;-1.10;100.00;98013.03;6243556;22;20407;-87
2023/02/08 08:26:13;;;;;;;23.20;12.70;;;;;;;-1.17;100.00;98011.47;6270559;22;20078;-87
2023/02/08 08:28:39;;;;;;;29.50;14.50;;;;;;;-1.17;100.00;98014.94;6244759;23;20411;-87
2023/02/08 08:31:11;;;;;;;28.33;14.23;;;;;;;-0.24;100.00;98011.25;6246239;23;20487;-86
2023/02/08 08:33:39;;;;;;;23.73;13.27;;;;;;;-0.76;100.00;98005.13;6246214;22;20419;-89
2023/02/08 08:36:05;;;;;;;23.60;13.10;;;;;;;-0.64;100.00;98011.63;6247356;23;20717;-92
2023/02/08 08:38:31;;;;;;;26.47;13.53;;;;;;;-0.78;100.00;98005.16;6245948;22;20506;-88
2023/02/08 08:40:56;;;;;;;24.40;13.53;;;;;;;-0.89;100.00;98003.78;6220164;23;20442;-88
2023/02/08 08:43:22;;;;;;;25.87;13.40;;;;;;;-0.52;100.00;98006.94;6220964;23;20016;-89
2023/02/08 08:45:48;;;;;;;23.47;13.30;;;;;;;0.19;100.00;98000.34;6280932;22;20067;-87
2023/02/08 08:48:14;;;;;;;23.60;13.20;;;;;;;0.29;100.00;98000.88;6242015;23;20016;-88
2023/02/08 08:50:41;;;;;;;27.40;13.90;;;;;;;1.40;100.00;97998.53;6248882;23;20011;-88
2023/02/08 08:53:08;;;;;;;25.20;12.93;;;;;;;0.97;100.00;98001.91;6232884;23;20309;-88
2023/02/08 08:55:33;;;;;;;22.07;12.10;;;;;;;-0.21;100.00;98005.13;6246385;23;20415;-89
2023/02/08 08:57:59;;;;;;;22.60;13.23;;;;;;;0.62;100.00;98000.59;6221039;23;20426;-89
2023/02/08 09:00:26;;;;;;;22.93;12.27;;;;;;;1.32;100.00;97995.41;6221326;23;20095;-89
2023/02/08 09:02:51;;;;;;;25.03;14.27;;;;;;;1.84;100.00;97989.88;6246128;23;20012;-88
2023/02/08 09:05:17;;;;;;;20.83;12.67;;;;;;;0.33;100.00;98004.19;6220861;23;20484;-90
2023/02/08 09:07:43;;;;;;;22.53;12.40;;;;;;;2.16;100.00;97985.16;6246448;23;20008;-87
2023/02/08 09:10:09;;;;;;;25.30;13.87;;;;;;;0.61;100.00;97998.91;6271816;22;20445;-88
2023/02/08 09:12:35;;;;;;;23.37;12.83;;;;;;;0.89;100.00;97997.00;6271623;22;20065;-86
2023/02/08 09:15:01;;;;;;;27.10;13.47;;;;;;;0.74;100.00;97994.13;6245295;23;20434;-86
2023/02/08 09:17:26;;;;;;;21.27;11.67;;;;;;;2.07;100.00;97987.19;6242857;23;20012;-84
2023/02/08 09:19:52;;;;;;;23.37;12.07;;;;;;;2.31;100.00;97982.75;6218979;23;20023;-84
2023/02/08 09:22:19;;;;;;;21.77;12.53;;;;;;;1.51;100.00;97995.53;6244733;23;20032;-85
2023/02/08 09:24:44;;;;;;;18.83;11.37;;;;;;;1.24;100.00;97992.28;6269975;22;20016;-84
2023/02/08 09:27:10;;;;;;;22.07;13.63;;;;;;;2.38;100.00;97985.06;6219278;23;20473;-85
2023/02/08 09:29:36;;;;;;;19.47;11.50;;;;;;;1.51;100.00;97986.88;6269469;22;20080;-85
2023/02/08 09:32:01;;;;;;;21.97;12.53;;;;;;;1.60;100.00;97982.19;6245305;22;20012;-85
2023/02/08 09:34:28;;;;;;;20.63;11.50;;;;;;;1.30;100.00;97991.16;6272604;22;20008;-85
2023/02/08 09:36:56;;;;;;;19.20;10.87;;;;;;;1.50;100.00;97988.66;6250626;23;20440;-85
2023/02/08 09:39:24;;;;;;;23.17;12.70;;;;;;;1.35;100.00;97989.25;6262206;23;20016;-87
2023/02/08 09:42:11;;;;;;;23.73;12.40;;;;;;;2.19;100.00;97985.03;6259282;23;20008;-85
2023/02/08 09:44:59;;;;;;;20.83;11.67;;;;;;;2.42;100.00;97974.50;6250246;23;20429;-85
2023/02/08 09:47:30;;;;;;;21.90;11.27;;;;;;;2.08;100.00;97975.94;6242962;23;20407;-86
2023/02/08 09:50:27;;;;;;;20.93;11.10;;;;;;;2.91;100.00;97976.69;6241471;23;20012;-86
2023/02/08 09:53:13;;;;;;;20.90;11.33;;;;;;;2.94;100.00;97974.78;6267539;22;20059;-86
2023/02/08 09:55:49;;;;;;;19.13;10.90;;;;;;;2.44;100.00;97974.41;6267489;22;20016;-86
2023/02/08 09:58:39;;;;;;;21.23;11.73;;;;;;;2.45;100.00;97981.28;6242228;22;20020;-85
2023/02/08 10:01:35;;;;;;;18.57;10.23;;;;;;;2.17;100.00;97971.25;6244069;22;20012;-86
2023/02/08 10:04:26;;;;;;;18.90;10.13;;;;;;;1.99;100.00;97975.47;6244171;22;20790;-86
2023/02/08 10:06:53;;;;;;;18.43;10.13;;;;;;;3.38;100.00;97961.47;6243123;23;20023;-86
2023/02/08 10:09:31;;;;;;;19.90;11.13;;;;;;;2.74;100.00;97967.03;6217712;23;20008;-85
2023/02/08 10:12:17;;;;;;;18.77;10.40;;;;;;;3.20;100.00;97964.97;6268628;22;20418;-86
2023/02/08 10:15:04;;;;;;;17.90;10.73;;;;;;;2.83;100.00;97962.28;6243630;23;20089;-85
2023/02/08 10:18:05;;;;;;;20.47;11.00;;;;;;;2.50;100.00;97971.56;6243078;23;20016;-86
2023/02/08 10:20:52;;;;;;;20.00;11.00;;;;;;;3.25;100.00;97968.16;6268331;22;20411;-86
2023/02/08 10:23:46;;;;;;;21.67;11.40;;;;;;;3.19;100.00;97958.91;6243301;23;20012;-86
2023/02/08 10:26:42;;;;;;;17.02;9.43;;;;;;;2.54;100.00;97965.31;6218034;23;20096;-86
2023/02/08 10:29:23;;;;;;;20.13;11.37;;;;;;;2.44;100.00;97967.47;6242860;23;20012;-86
2023/02/08 10:32:23;;;;;;;20.30;10.47;;;;;;;2.21;100.00;97971.03;6266839;22;20024;-86
2023/02/08 10:34:59;;;;;;;20.77;10.93;;;;;;;3.47;100.00;97968.84;6268838;22;20019;-85
2023/02/08 10:37:34;;;;;;;19.73;11.20;;;;;;;3.70;98.26;97978.16;6244058;23;20012;-86
2023/02/08 10:40:16;;;;;;;18.50;10.60;;;;;;;3.05;100.00;97963.88;6268630;22;20336;-85
2023/02/08 10:42:47;;;;;;;21.13;10.97;;;;;;;3.63;97.57;97952.53;6243506;23;20435;-85
2023/02/08 10:45:47;;;;;;;18.23;10.97;;;;;;;2.76;100.00;97957.44;6242887;23;20052;-86
2023/02/08 10:48:25;;;;;;;17.37;9.20;;;;;;;2.52;97.83;97955.00;6221925;22;20781;-85
2023/02/08 10:50:51;;;;;;;17.67;8.97;;;;;;;3.15;98.98;97952.16;6217963;23;20012;-85
2023/02/08 10:53:19;;;;;;;18.60;9.90;;;;;;;2.94;100.00;97946.19;6242925;23;20038;-86
2023/02/08 10:55:47;;;;;;;17.97;9.90;;;;;;;3.49;100.00;97942.78;6242935;23;20023;-85
2023/02/08 10:58:17;;;;;;;21.87;10.30;;;;;;;3.38;99.53;97930.28;6243615;23;20016;-85
2023/02/08 11:00:44;;;;;;;19.53;9.57;;;;;;;3.58;100.00;97938.88;6269271;22;20020;-85
2023/02/08 11:03:17;;;;;;;21.13;9.60;;;;;;;3.05;99.43;97928.38;6243000;23;20464;-86
2023/02/08 11:05:44;;;;;;;17.50;9.90;;;;;;;3.28;96.91;97934.22;6243007;23;20394;-85
2023/02/08 11:08:18;;;;;;;18.17;9.73;;;;;;;3.60;98.86;97921.47;6218183;23;20032;-85
2023/02/08 11:11:02;;;;;;;20.47;9.13;;;;;;;2.54;100.00;97921.16;6244581;23;20012;-86
2023/02/08 11:13:38;;;;;;;;;;;;;;;3.49;97.88;97911.59;6271168;23;20042;-84
2023/02/08 11:16:09;;;;;;;19.43;10.03;;;;;;;2.76;98.61;97915.88;6226978;23;19978;-85
2023/02/08 11:18:46;;;;;;;15.93;9.10;;;;;;;2.33;99.69;97922.97;6217292;23;20032;-85
2023/02/08 11:21:35;;;;;;;17.53;9.90;;;;;;;3.21;100.00;97912.88;6243047;23;20016;-85
2023/02/08 11:24:16;;;;;;;15.40;9.33;;;;;;;3.70;96.63;97915.72;6242667;23;20036;-85
2023/02/08 11:26:42;;;;;;;18.43;9.10;;;;;;;3.13;98.57;97911.56;6217121;23;20020;-85
2023/02/08 11:29:30;;;;;;;19.30;9.90;;;;;;;2.98;96.97;97915.72;6269993;22;20008;-86
2023/02/08 11:32:16;;;;;;;18.47;9.83;;;;;;;3.28;100.00;97914.25;6219721;23;20450;-85
2023/02/08 11:35:10;;;;;;;17.70;9.80;;;;;;;2.72;100.00;97906.53;6219752;23;20008;-86
2023/02/08 11:37:35;;;;;;;12.57;7.68;;;;;;;3.06;100.00;97904.06;6243670;23;20086;-86